Time;durP1;ratioP1;P1;durP2;ratioP2;P2;SDS_P1;SDS_P2;PMS_P1;PMS_P2;Temp;Humidity;BMP_temperature;BMP_pressure;BME280_temperature;BME280_humidity;BME280_pressure;Samples;Min_cycle;Max_cycle;Signal;HPM_P1;HPM_P2
2021/05/14 00:06:03;;;;;;;0.20;0.10;;;16.70;99.90;;;;;;20777200;28;20234;-72
2021/05/14 00:16:09;;;;;;;0.43;0.37;;;16.80;99.90;;;;;;20797821;28;20197;-74
2021/05/14 00:26:13;;;;;;;0.20;0.10;;;16.70;99.90;;;;;;20775415;28;20228;-73
2021/05/14 00:36:17;;;;;;;0.67;0.53;;;16.70;99.90;;;;;;20774109;28;20229;-73
2021/05/14 00:46:22;;;;;;;0.63;0.47;;;16.60;99.90;;;;;;20774838;28;20221;-72
2021/05/14 00:56:26;;;;;;;0.20;0.10;;;16.60;99.90;;;;;;20771563;28;20190;-72
2021/05/14 01:06:29;;;;;;;0.20;0.10;;;16.70;99.90;;;;;;20758653;22;20897;-68
2021/05/14 01:16:33;;;;;;;0.27;0.23;;;16.60;99.90;;;;;;20730611;28;20198;-68
2021/05/14 01:26:38;;;;;;;0.20;0.10;;;16.40;99.90;;;;;;20730325;28;20276;-69
2021/05/14 01:36:41;;;;;;;0.20;0.10;;;16.30;99.90;;;;;;20728984;28;20201;-67
2021/05/14 01:46:46;;;;;;;0.53;0.37;;;16.10;99.90;;;;;;20727439;28;20233;-68
2021/05/14 01:56:51;;;;;;;0.20;0.10;;;16.00;99.90;;;;;;20728193;28;20183;-68
2021/05/14 02:06:54;;;;;;;0.20;0.10;;;15.90;99.90;;;;;;20784563;23;20289;-73
2021/05/14 02:16:58;;;;;;;0.20;0.10;;;16.00;99.90;;;;;;20772094;28;20344;-72
2021/05/14 02:27:03;;;;;;;0.20;0.10;;;15.90;99.90;;;;;;20771786;28;20230;-72
2021/05/14 02:37:06;;;;;;;2.83;0.40;;;15.90;99.90;;;;;;20771994;28;20190;-71
2021/05/14 02:47:11;;;;;;;0.43;0.30;;;15.80;99.90;;;;;;20788056;28;20248;-71
2021/05/14 02:57:14;;;;;;;0.20;0.10;;;15.10;99.90;;;;;;20783920;28;20273;-72
2021/05/14 03:07:19;;;;;;;0.20;0.10;;;15.40;99.90;;;;;;20669248;23;20427;-69
2021/05/14 03:17:22;;;;;;;3.83;0.47;;;15.60;99.90;;;;;;20620706;28;20229;-68
2021/05/14 03:27:26;;;;;;;0.53;0.20;;;15.60;99.90;;;;;;20621215;28;20231;-67
2021/05/14 03:37:29;;;;;;;0.20;0.10;;;15.80;99.90;;;;;;20617537;28;20206;-68
2021/05/14 03:47:33;;;;;;;0.80;0.73;;;16.00;99.90;;;;;;20618226;28;20413;-69
2021/05/14 03:57:36;;;;;;;0.20;0.20;;;16.20;99.90;;;;;;20612297;28;20707;-68
2021/05/14 04:07:41;;;;;;;0.30;0.30;;;16.30;99.90;;;;;;20620357;28;20237;-69
2021/05/14 04:17:44;;;;;;;0.40;0.30;;;16.30;99.90;;;;;;20617267;28;20200;-68
2021/05/14 04:27:48;;;;;;;0.20;0.10;;;16.40;99.90;;;;;;20580154;28;20358;-67
2021/05/14 04:37:51;;;;;;;0.87;0.87;;;16.60;99.90;;;;;;20613181;28;20211;-67
2021/05/14 04:47:55;;;;;;;0.43;0.43;;;16.80;99.90;;;;;;20613126;28;20231;-68
2021/05/14 04:57:58;;;;;;;0.30;0.30;;;16.60;99.90;;;;;;20594986;28;20548;-68
2021/05/14 05:08:03;;;;;;;0.43;0.43;;;16.60;99.90;;;;;;20613251;28;20239;-68
2021/05/14 05:18:06;;;;;;;0.20;0.10;;;16.60;99.90;;;;;;20612117;28;20601;-69
2021/05/14 05:28:10;;;;;;;0.30;0.30;;;16.40;99.90;;;;;;20613432;28;20227;-69
2021/05/14 05:38:16;;;;;;;0.87;0.80;;;16.50;99.90;;;;;;20610499;28;20219;-69
2021/05/14 05:48:23;;;;;;;0.87;0.87;;;16.60;99.90;;;;;;20612935;28;20196;-69
2021/05/14 05:58:26;;;;;;;4.27;0.80;;;16.70;99.90;;;;;;20607527;28;20282;-69
2021/05/14 06:08:30;;;;;;;0.33;0.30;;;16.70;99.90;;;;;;20531604;28;20247;-68
2021/05/14 06:18:36;;;;;;;0.20;0.17;;;16.90;99.90;;;;;;20540482;28;20197;-68
2021/05/14 06:28:40;;;;;;;0.30;0.30;;;16.90;99.90;;;;;;20544577;28;20272;-70
2021/05/14 06:38:43;;;;;;;0.50;0.50;;;16.40;99.90;;;;;;20547601;28;20212;-65
2021/05/14 06:48:48;;;;;;;0.20;0.20;;;16.70;99.90;;;;;;20546677;28;20211;-67
2021/05/14 06:58:54;;;;;;;0.20;0.13;;;16.90;99.90;;;;;;20543135;28;20243;-63
2021/05/14 07:09:01;;;;;;;0.20;0.10;;;16.50;99.90;;;;;;20601088;28;20227;-66
2021/05/14 07:19:04;;;;;;;0.33;0.33;;;16.50;99.90;;;;;;20621469;28;20227;-65
2021/05/14 07:29:08;;;;;;;6.90;0.67;;;16.10;99.90;;;;;;20618361;28;20200;-67
2021/05/14 07:39:12;;;;;;;0.20;0.10;;;16.00;99.90;;;;;;20570540;28;20382;-65
2021/05/14 07:49:16;;;;;;;0.23;0.10;;;16.10;99.90;;;;;;20535661;28;20250;-66
2021/05/14 07:59:19;;;;;;;0.20;0.10;;;16.00;99.90;;;;;;20583834;28;20751;-66
2021/05/14 08:09:24;;;;;;;1.03;0.80;;;16.50;99.90;;;;;;20582610;28;20235;-66
2021/05/14 08:19:27;;;;;;;0.20;0.20;;;17.00;99.90;;;;;;20578452;28;20341;-65
2021/05/14 08:29:31;;;;;;;0.20;0.20;;;17.70;99.90;;;;;;20585925;28;20202;-64
2021/05/14 08:39:34;;;;;;;0.43;0.43;;;17.60;99.90;;;;;;20570777;28;20571;-67
2021/05/14 08:49:39;;;;;;;0.33;0.33;;;17.60;99.90;;;;;;20550219;28;20271;-65
2021/05/14 08:59:43;;;;;;;2.77;1.23;;;18.10;99.90;;;;;;20551044;28;20221;-66
2021/05/14 09:10:10;;;;;;;0.37;0.37;;;17.90;99.90;;;;;;20567155;28;20199;-65
2021/05/14 09:20:29;;;;;;;0.20;0.20;;;17.60;99.90;;;;;;20565471;28;20227;-64
2021/05/14 09:30:36;;;;;;;0.43;0.37;;;17.10;99.90;;;;;;20567434;28;20588;-65
2021/05/14 09:40:40;;;;;;;1.20;0.20;;;17.20;99.90;;;;;;20560601;28;20223;-66
2021/05/14 09:50:46;;;;;;;0.73;0.73;;;17.00;99.90;;;;;;20563704;28;20199;-67
2021/05/14 10:00:50;;;;;;;1.13;0.30;;;17.40;99.90;;;;;;20546079;28;20322;-65
2021/05/14 10:10:55;;;;;;;0.20;0.10;;;17.40;99.90;;;;;;20564410;28;20753;-66
2021/05/14 10:20:59;;;;;;;0.73;0.60;;;17.50;99.90;;;;;;20538186;28;20263;-65
2021/05/14 10:31:23;;;;;;;2.23;0.40;;;17.80;99.90;;;;;;20492953;28;20350;-67
2021/05/14 10:41:27;;;;;;;1.07;0.73;;;18.30;99.90;;;;;;20524537;28;20260;-67
2021/05/14 10:52:02;;;;;;;2.10;0.33;;;18.90;99.90;;;;;;20505944;28;20251;-66
2021/05/14 11:02:27;;;;;;;0.20;0.10;;;19.10;99.90;;;;;;20570524;28;20231;-65
2021/05/14 11:12:31;;;;;;;0.67;0.43;;;19.70;99.90;;;;;;20572669;28;20192;-66
2021/05/14 11:22:37;;;;;;;0.23;0.23;;;20.20;99.90;;;;;;20543714;28;20232;-65
2021/05/14 11:32:43;;;;;;;1.80;0.97;;;21.70;99.90;;;;;;20535415;28;20195;-64
2021/05/14 11:42:48;;;;;;;0.20;0.10;;;21.60;99.90;;;;;;20536475;28;20270;-65
2021/05/14 11:52:52;;;;;;;3.73;0.77;;;21.30;99.90;;;;;;20569370;28;20720;-64
2021/05/14 12:02:58;;;;;;;0.30;0.30;;;22.70;99.90;;;;;;20587067;28;20268;-66
2021/05/14 12:13:03;;;;;;;0.63;0.50;;;23.30;99.90;;;;;;20578906;28;20892;-66
2021/05/14 12:23:46;;;;;;;0.30;0.30;;;23.40;99.90;;;;;;20573666;28;20556;-67
2021/05/14 12:34:31;;;;;;;0.20;0.10;;;23.70;99.90;;;;;;20554736;28;20560;-67
2021/05/14 12:45:20;;;;;;;2.13;0.57;;;24.20;99.90;;;;;;20561390;28;20630;-68
2021/05/14 12:56:27;;;;;;;3.13;0.67;;;23.60;99.90;;;;;;20562621;28;20639;-64
2021/05/14 13:07:13;;;;;;;0.80;0.73;;;23.30;99.90;;;;;;20568658;28;20275;-65
2021/05/14 13:17:58;;;;;;;2.53;0.93;;;23.40;99.90;;;;;;20568970;28;20305;-66
2021/05/14 13:28:44;;;;;;;7.28;1.73;;;24.00;99.90;;;;;;20554320;28;20720;-67
2021/05/14 13:39:30;;;;;;;0.40;0.40;;;24.80;99.90;;;;;;20566985;28;20242;-66
2021/05/14 13:50:14;;;;;;;0.20;0.05;;;24.30;99.90;;;;;;20566905;28;20255;-65
2021/05/14 14:00:58;;;;;;;0.50;0.50;;;25.20;99.90;;;;;;20583794;28;20258;-68
2021/05/14 14:11:44;;;;;;;2.58;0.50;;;25.90;99.90;;;;;;20587296;28;20273;-67
2021/05/14 14:22:30;;;;;;;1.33;0.50;;;25.00;99.90;;;;;;20606442;28;20705;-67
2021/05/14 14:33:14;;;;;;;1.00;0.40;;;26.30;99.90;;;;;;20608198;28;20285;-67
2021/05/14 14:44:01;;;;;;;0.85;0.32;;;26.80;99.90;;;;;;20620913;28;20223;-70
2021/05/14 14:54:45;;;;;;;17.42;0.88;;;27.40;99.90;;;;;;20620857;28;20228;-64
2021/05/14 15:05:30;;;;;;;0.52;0.28;;;26.80;99.90;;;;;;20622818;28;20243;-68
2021/05/14 15:16:14;;;;;;;2.63;0.75;;;26.90;99.90;;;;;;20619614;28;20238;-67
2021/05/14 15:26:59;;;;;;;2.33;0.30;;;26.50;99.90;;;;;;20612208;28;20258;-65
2021/05/14 15:37:54;;;;;;;3.53;0.93;;;26.00;99.90;;;;;;20611639;28;20255;-67
2021/05/14 15:48:41;;;;;;;4.65;0.68;;;26.30;99.90;;;;;;20534696;28;20559;-66
2021/05/14 15:59:25;;;;;;;0.63;0.43;;;26.60;99.90;;;;;;20597067;28;20203;-67
2021/05/14 16:10:12;;;;;;;1.40;1.23;;;25.80;99.90;;;;;;20613522;28;20439;-68
2021/05/14 16:20:55;;;;;;;4.03;0.90;;;25.20;99.90;;;;;;20592563;28;20223;-67
2021/05/14 16:31:40;;;;;;;0.60;0.23;;;23.30;99.90;;;;;;20614326;28;20218;-69
2021/05/14 16:42:24;;;;;;;4.23;0.60;;;22.10;99.90;;;;;;20614028;28;20555;-67
2021/05/14 16:53:08;;;;;;;3.10;1.30;;;22.20;99.90;;;;;;20610343;28;20253;-68
2021/05/14 17:03:52;;;;;;;0.20;0.10;;;23.50;99.90;;;;;;20605213;28;20227;-66
2021/05/14 17:14:38;;;;;;;4.30;0.57;;;24.20;99.90;;;;;;20586485;28;20188;-67
2021/05/14 17:25:23;;;;;;;0.40;0.30;;;24.00;99.90;;;;;;20590950;28;20261;-67
2021/05/14 17:36:08;;;;;;;0.57;0.37;;;23.00;99.90;;;;;;20554621;28;20287;-69
2021/05/14 17:46:13;;;;;;;5.20;1.17;;;21.70;99.90;;;;;;20539797;28;20234;-66
2021/05/14 17:56:18;;;;;;;7.53;0.83;;;22.00;99.90;;;;;;20596678;28;20203;-67
2021/05/14 18:06:21;;;;;;;0.40;0.40;;;20.80;99.90;;;;;;20589154;28;20725;-66
2021/05/14 18:16:25;;;;;;;0.20;0.10;;;19.60;99.90;;;;;;20583681;28;20227;-68
2021/05/14 18:26:28;;;;;;;0.43;0.40;;;19.30;99.90;;;;;;20612012;28;20228;-66
2021/05/14 18:36:33;;;;;;;5.40;2.17;;;19.50;99.90;;;;;;20587471;28;20222;-66
2021/05/14 18:46:36;;;;;;;0.50;0.50;;;18.80;99.90;;;;;;20558472;28;20232;-68
2021/05/14 18:56:40;;;;;;;0.20;0.20;;;18.20;99.90;;;;;;20562460;28;20740;-66
2021/05/14 19:06:43;;;;;;;0.20;0.20;;;18.00;99.90;;;;;;20582068;28;20228;-67
2021/05/14 19:16:47;;;;;;;2.17;0.80;;;17.50;99.90;;;;;;20556491;28;20203;-69
2021/05/14 19:47:42;;;;;;;0.23;0.17;;;17.00;99.90;;;;;;20555215;28;20224;-68
2021/05/14 19:57:46;;;;;;;0.20;0.20;;;16.80;99.90;;;;;;20556159;28;20198;-68
2021/05/14 20:07:50;;;;;;;0.20;0.10;;;16.60;99.90;;;;;;20577651;28;20246;-70
2021/05/14 20:17:54;;;;;;;6.07;1.13;;;16.50;99.90;;;;;;20564532;28;20206;-72
2021/05/14 20:27:57;;;;;;;0.50;0.40;;;16.50;99.90;;;;;;20577787;28;20226;-67
2021/05/14 20:38:06;;;;;;;2.40;0.60;;;16.40;99.90;;;;;;20606891;28;20202;-70
2021/05/14 20:48:09;;;;;;;0.47;0.47;;;16.30;99.90;;;;;;20579436;28;20227;-75
2021/05/14 20:58:14;;;;;;;0.20;0.10;;;16.30;99.90;;;;;;20625783;28;20196;-71
2021/05/14 21:08:17;;;;;;;6.73;0.80;;;16.30;99.90;;;;;;20613939;28;20235;-71
2021/05/14 21:18:21;;;;;;;0.20;0.20;;;16.40;99.90;;;;;;20599920;28;20773;-69
2021/05/14 21:28:25;;;;;;;1.30;0.83;;;16.30;99.90;;;;;;20548307;28;20357;-70
2021/05/14 21:38:29;;;;;;;0.53;0.53;;;16.30;99.90;;;;;;20523808;28;20402;-71
2021/05/14 21:48:32;;;;;;;0.50;0.40;;;16.40;99.90;;;;;;20594536;28;20219;-72
2021/05/14 21:58:34;;;;;;;2.00;0.20;;;16.50;99.90;;;;;;20614054;28;20195;-72
2021/05/14 22:08:38;;;;;;;0.20;0.10;;;16.40;99.90;;;;;;20524215;28;20322;-70
2021/05/14 22:18:41;;;;;;;0.63;0.60;;;16.30;99.90;;;;;;20572462;28;20207;-72
2021/05/14 22:28:43;;;;;;;0.23;0.20;;;16.00;99.90;;;;;;20547880;28;20223;-73
2021/05/14 22:38:46;;;;;;;9.87;1.00;;;15.70;99.90;;;;;;20603525;28;20193;-69
2021/05/14 22:48:49;;;;;;;6.23;0.77;;;15.50;99.90;;;;;;20559052;28;20231;-69
2021/05/14 22:58:51;;;;;;;0.33;0.30;;;15.30;99.90;;;;;;20614162;28;20564;-69
2021/05/14 23:08:53;;;;;;;0.53;0.53;;;15.10;99.90;;;;;;20624318;28;20235;-71
2021/05/14 23:18:56;;;;;;;0.57;0.30;;;14.80;99.90;;;;;;20605746;28;20563;-68
2021/05/14 23:28:58;;;;;;;0.20;0.03;;;14.70;99.90;;;;;;20630848;28;20227;-69
2021/05/14 23:39:01;;;;;;;5.97;0.50;;;14.60;99.90;;;;;;20611015;28;20223;-70
2021/05/14 23:49:03;;;;;;;0.33;0.20;;;14.60;99.90;;;;;;20621450;28;20241;-69
2021/05/14 23:59:06;;;;;;;0.20;0.20;;;14.50;99.90;;;;;;20620891;28;20191;-71
